Time,TemperatureF,DewpointF,PressureIn,WindDirection,WindDirectionDegrees,WindSpeedMPH,WindSpeedGustMPH,Humidity,HourlyPrecipIn,Conditions,Clouds,dailyrainin,SoftwareType,DateUTC
2013-04-05 00:02:00,40.0,28.0,30.01,NW,319,1.0,7.0,63,0.00,,,0.00,,2013-04-05 05:02:00,
2013-04-05 00:12:00,40.0,28.0,30.01,NW,319,1.0,7.0,63,0.00,,,0.00,,2013-04-05 05:12:00,
2013-04-05 00:22:00,39.0,27.0,30.02,WNW,300,1.0,6.0,63,0.00,,,0.00,,2013-04-05 05:22:00,
2013-04-05 00:32:00,39.0,28.0,30.02,WNW,298,2.0,6.0,64,0.00,,,0.00,,2013-04-05 05:32:00,
2013-04-05 00:42:00,39.0,28.0,30.02,WNW,298,2.0,6.0,64,0.00,,,0.00,,2013-04-05 05:42:00,
2013-04-05 00:52:00,38.0,27.0,30.03,NW,309,1.0,3.0,65,0.00,,,0.00,,2013-04-05 05:52:00,
2013-04-05 01:02:00,38.0,27.0,30.03,NW,323,1.0,6.0,65,0.00,,,0.00,,2013-04-05 06:02:00,
2013-04-05 01:12:00,38.0,27.0,30.03,NW,323,1.0,6.0,65,0.00,,,0.00,,2013-04-05 06:12:00,
2013-04-05 01:22:00,38.0,27.0,30.03,North,11,1.0,6.0,64,0.00,,,0.00,,2013-04-05 06:22:00,
2013-04-05 01:32:00,37.0,27.0,30.04,North,351,0.0,5.0,66,0.00,,,0.00,,2013-04-05 06:32:00,
2013-04-05 01:42:00,37.0,27.0,30.04,North,351,0.0,5.0,66,0.00,,,0.00,,2013-04-05 06:42:00,
2013-04-05 01:52:00,37.0,27.0,30.05,NW,319,1.0,5.0,67,0.00,,,0.00,,2013-04-05 06:52:00,
2013-04-05 02:02:00,36.0,26.0,30.05,NW,321,0.0,4.0,68,0.00,,,0.00,,2013-04-05 07:02:00,
2013-04-05 02:12:00,36.0,26.0,30.05,NW,321,0.0,4.0,68,0.00,,,0.00,,2013-04-05 07:12:00,
2013-04-05 02:22:00,36.0,26.0,30.05,NNW,330,1.0,5.0,68,0.00,,,0.00,,2013-04-05 07:22:00,
2013-04-05 02:32:00,36.0,26.0,30.05,NNW,331,0.0,5.0,68,0.00,,,0.00,,2013-04-05 07:32:00,
2013-04-05 02:42:00,36.0,26.0,30.05,NNW,331,0.0,5.0,68,0.00,,,0.00,,2013-04-05 07:42:00,
2013-04-05 02:52:00,35.0,26.0,30.06,NE,51,4.0,7.0,68,0.00,,,0.00,,2013-04-05 07:52:00,
2013-04-05 03:02:00,35.0,26.0,30.06,ENE,61,0.0,2.0,68,0.00,,,0.00,,2013-04-05 08:02:00,
2013-04-05 03:12:00,35.0,26.0,30.06,ENE,61,0.0,2.0,68,0.00,,,0.00,,2013-04-05 08:12:00,
2013-04-05 03:22:00,34.0,25.0,30.07,ENE,60,0.0,2.0,70,0.00,,,0.00,,2013-04-05 08:22:00,
2013-04-05 03:32:00,34.0,25.0,30.08,ENE,61,0.0,0.0,70,0.00,,,0.00,,2013-04-05 08:32:00,
2013-04-05 03:42:00,34.0,25.0,30.08,ENE,61,0.0,0.0,70,0.00,,,0.00,,2013-04-05 08:42:00,
2013-04-05 03:52:00,33.0,25.0,30.08,ENE,61,0.0,0.0,71,0.00,,,0.00,,2013-04-05 08:52:00,
2013-04-05 04:02:00,32.0,24.0,30.09,ENE,60,0.0,1.0,72,0.00,,,0.00,,2013-04-05 09:02:00,
2013-04-05 04:12:00,32.0,24.0,30.09,ENE,60,0.0,1.0,72,0.00,,,0.00,,2013-04-05 09:12:00,
2013-04-05 04:22:00,32.0,24.0,30.09,ENE,61,0.0,0.0,73,0.00,,,0.00,,2013-04-05 09:22:00,
2013-04-05 04:33:00,31.0,23.0,30.10,ENE,61,0.0,0.0,73,0.00,,,0.00,,2013-04-05 09:33:00,
2013-04-05 04:42:00,31.0,23.0,30.10,ENE,61,0.0,0.0,73,0.00,,,0.00,,2013-04-05 09:42:00,
2013-04-05 04:53:00,30.0,23.0,30.11,ENE,61,0.0,0.0,74,0.00,,,0.00,,2013-04-05 09:53:00,
2013-04-05 05:03:00,30.0,23.0,30.11,ENE,61,0.0,0.0,75,0.00,,,0.00,,2013-04-05 10:03:00,
2013-04-05 05:12:00,30.0,23.0,30.11,ENE,61,0.0,0.0,75,0.00,,,0.00,,2013-04-05 10:12:00,
2013-04-05 05:23:00,29.0,22.0,30.11,ENE,60,0.0,0.0,76,0.00,,,0.00,,2013-04-05 10:23:00,
2013-04-05 05:32:00,29.0,22.0,30.12,ENE,61,0.0,0.0,76,0.00,,,0.00,,2013-04-05 10:32:00,
2013-04-05 05:42:00,29.0,22.0,30.12,ENE,61,0.0,0.0,76,0.00,,,0.00,,2013-04-05 10:42:00,
2013-04-05 05:53:00,29.0,23.0,30.12,ENE,61,0.0,0.0,77,0.00,,,0.00,,2013-04-05 10:53:00,
2013-04-05 06:02:00,29.0,23.0,30.13,ENE,61,0.0,0.0,77,0.00,,,0.00,,2013-04-05 11:02:00,
2013-04-05 06:12:00,29.0,23.0,30.13,ENE,61,0.0,0.0,77,0.00,,,0.00,,2013-04-05 11:12:00,
2013-04-05 06:22:00,28.0,22.0,30.14,ENE,61,0.0,0.0,77,0.00,,,0.00,,2013-04-05 11:22:00,
2013-04-05 06:32:00,29.0,23.0,30.14,ENE,61,0.0,1.0,78,0.00,,,0.00,,2013-04-05 11:32:00,
2013-04-05 06:42:00,29.0,23.0,30.14,ENE,61,0.0,1.0,78,0.00,,,0.00,,2013-04-05 11:42:00,
2013-04-05 06:52:00,30.0,23.0,30.16,ENE,60,0.0,2.0,76,0.00,,,0.00,,2013-04-05 11:52:00,
2013-04-05 07:02:00,31.0,24.0,30.16,ENE,61,1.0,2.0,75,0.00,,,0.00,,2013-04-05 12:02:00,
2013-04-05 07:12:00,31.0,24.0,30.16,ENE,61,1.0,2.0,75,0.00,,,0.00,,2013-04-05 12:12:00,
2013-04-05 07:22:00,31.0,23.0,30.16,North,360,0.0,4.0,73,0.00,,,0.00,,2013-04-05 12:22:00,
2013-04-05 07:32:00,32.0,24.0,30.17,North,360,0.0,5.0,73,0.00,,,0.00,,2013-04-05 12:32:00,
2013-04-05 07:42:00,32.0,24.0,30.17,North,360,0.0,5.0,73,0.00,,,0.00,,2013-04-05 12:42:00,
2013-04-05 07:52:00,33.0,25.0,30.18,NNE,31,2.0,5.0,71,0.00,,,0.00,,2013-04-05 12:52:00,
2013-04-05 08:02:00,33.0,24.0,30.18,NNE,30,1.0,7.0,70,0.00,,,0.00,,2013-04-05 13:02:00,
2013-04-05 08:12:00,33.0,24.0,30.18,NNE,30,1.0,7.0,70,0.00,,,0.00,,2013-04-05 13:12:00,
2013-04-05 08:22:00,33.0,24.0,30.19,NNE,18,6.0,11.0,70,0.00,,,0.00,,2013-04-05 13:22:00,
2013-04-05 08:32:00,34.0,25.0,30.20,NE,36,4.0,11.0,69,0.00,,,0.00,,2013-04-05 13:32:00,
2013-04-05 08:42:00,34.0,25.0,30.20,NE,36,4.0,11.0,69,0.00,,,0.00,,2013-04-05 13:42:00,
2013-04-05 08:52:00,34.0,25.0,30.20,North,355,3.0,9.0,68,0.00,,,0.00,,2013-04-05 13:52:00,
2013-04-05 09:03:00,34.0,25.0,30.20,East,84,4.0,10.0,69,0.00,,,0.00,,2013-04-05 14:03:00,
2013-04-05 09:12:00,34.0,25.0,30.20,East,84,4.0,10.0,69,0.00,,,0.00,,2013-04-05 14:12:00,
2013-04-05 09:22:00,35.0,25.0,30.20,NNE,25,6.0,11.0,66,0.00,,,0.00,,2013-04-05 14:22:00,
2013-04-05 09:36:00,35.0,25.0,30.21,NE,51,7.0,11.0,67,0.00,,,0.00,,2013-04-05 14:36:00,
2013-04-05 09:42:00,35.0,25.0,30.21,NE,51,7.0,11.0,67,0.00,,,0.00,,2013-04-05 14:42:00,
2013-04-05 10:02:00,36.0,26.0,30.22,NE,51,2.0,9.0,66,0.00,,,0.00,,2013-04-05 15:02:00,
2013-04-05 10:12:00,36.0,26.0,30.22,NE,51,2.0,9.0,66,0.00,,,0.00,,2013-04-05 15:12:00,
2013-04-05 10:23:00,36.0,25.0,30.22,ENE,69,5.0,11.0,65,0.00,,,0.00,,2013-04-05 15:23:00,
2013-04-05 10:33:00,37.0,26.0,30.22,NNE,27,5.0,10.0,65,0.00,,,0.00,,2013-04-05 15:33:00,
2013-04-05 10:42:00,37.0,26.0,30.22,NNE,27,5.0,10.0,65,0.00,,,0.00,,2013-04-05 15:42:00,
2013-04-05 11:02:00,38.0,26.0,30.23,SE,134,2.0,7.0,61,0.00,,,0.00,,2013-04-05 16:02:00,
2013-04-05 11:13:00,38.0,26.0,30.23,SE,134,2.0,7.0,61,0.00,,,0.00,,2013-04-05 16:13:00,
2013-04-05 11:23:00,39.0,26.0,30.22,NE,44,2.0,8.0,60,0.00,,,0.00,,2013-04-05 16:23:00,
2013-04-05 11:33:00,39.0,26.0,30.22,North,11,3.0,8.0,59,0.00,,,0.00,,2013-04-05 16:33:00,
2013-04-05 11:42:00,39.0,26.0,30.22,North,11,3.0,8.0,59,0.00,,,0.00,,2013-04-05 16:42:00,
2013-04-05 11:53:00,39.0,24.0,30.22,ENE,70,1.0,8.0,55,0.00,,,0.00,,2013-04-05 16:53:00,
2013-04-05 12:03:00,39.0,24.0,30.21,NNE,33,3.0,8.0,54,0.00,,,0.00,,2013-04-05 17:03:00,
2013-04-05 12:13:00,39.0,24.0,30.21,NNE,33,3.0,8.0,54,0.00,,,0.00,,2013-04-05 17:13:00,
2013-04-05 12:23:00,40.0,24.0,30.21,NE,44,5.0,10.0,52,0.00,,,0.00,,2013-04-05 17:23:00,
2013-04-05 12:32:00,41.0,25.0,30.20,NE,45,2.0,8.0,52,0.00,,,0.00,,2013-04-05 17:32:00,
2013-04-05 12:45:00,41.0,25.0,30.20,NE,45,2.0,8.0,52,0.00,,,0.00,,2013-04-05 17:45:00,
2013-04-05 12:52:00,41.0,23.0,30.20,NNE,22,2.0,8.0,48,0.00,,,0.00,,2013-04-05 17:52:00,
2013-04-05 13:02:00,42.0,24.0,30.19,NE,46,5.0,7.0,49,0.00,,,0.00,,2013-04-05 18:02:00,
2013-04-05 13:12:00,42.0,24.0,30.19,NE,46,5.0,7.0,49,0.00,,,0.00,,2013-04-05 18:12:00,
2013-04-05 13:22:00,42.0,24.0,30.19,NE,50,4.0,7.0,49,0.00,,,0.00,,2013-04-05 18:22:00,
2013-04-05 13:32:00,42.0,24.0,30.19,ENE,74,2.0,7.0,49,0.00,,,0.00,,2013-04-05 18:32:00,
2013-04-05 13:42:00,42.0,24.0,30.19,ENE,74,2.0,7.0,49,0.00,,,0.00,,2013-04-05 18:42:00,
2013-04-05 13:53:00,42.0,23.0,30.18,East,88,1.0,7.0,46,0.00,,,0.00,,2013-04-05 18:53:00,
2013-04-05 14:02:00,42.0,23.0,30.17,NE,52,4.0,7.0,46,0.00,,,0.00,,2013-04-05 19:02:00,
2013-04-05 14:13:00,42.0,23.0,30.17,NE,52,4.0,7.0,46,0.00,,,0.00,,2013-04-05 19:13:00,
2013-04-05 14:22:00,43.0,24.0,30.17,North,11,0.0,7.0,47,0.00,,,0.00,,2013-04-05 19:22:00,
2013-04-05 14:33:00,43.0,24.0,30.17,North,11,0.0,7.0,47,0.00,,,0.00,,2013-04-05 19:33:00,
2013-04-05 14:42:00,43.0,24.0,30.17,North,11,0.0,7.0,47,0.00,,,0.00,,2013-04-05 19:42:00,
2013-04-05 14:52:00,43.0,24.0,30.17,North,11,0.0,7.0,47,0.00,,,0.00,,2013-04-05 19:52:00,
2013-04-05 16:02:00,44.0,23.0,30.15,WNW,290,2.0,7.0,43,0.00,,,0.00,,2013-04-05 21:02:00,
2013-04-05 16:13:00,44.0,23.0,30.15,WNW,290,2.0,7.0,43,0.00,,,0.00,,2013-04-05 21:13:00,
2013-04-05 16:23:00,45.0,24.0,30.14,SW,217,2.0,7.0,43,0.00,,,0.00,,2013-04-05 21:23:00,
2013-04-05 16:33:00,44.0,23.0,30.14,SSW,206,4.0,6.0,44,0.00,,,0.00,,2013-04-05 21:33:00,
2013-04-05 16:43:00,44.0,23.0,30.14,SSW,206,4.0,6.0,44,0.00,,,0.00,,2013-04-05 21:43:00,
2013-04-05 16:54:00,45.0,24.0,30.14,WSW,246,4.0,8.0,43,0.00,,,0.00,,2013-04-05 21:54:00,
2013-04-05 17:03:00,45.0,24.0,30.15,WNW,300,4.0,7.0,43,0.00,,,0.00,,2013-04-05 22:03:00,
2013-04-05 17:13:00,45.0,24.0,30.15,WNW,300,4.0,7.0,43,0.00,,,0.00,,2013-04-05 22:13:00,
2013-04-05 17:23:00,44.0,23.0,30.15,NW,304,1.0,5.0,44,0.00,,,0.00,,2013-04-05 22:23:00,
2013-04-05 17:33:00,44.0,23.0,30.15,NW,310,2.0,7.0,44,0.00,,,0.00,,2013-04-05 22:33:00,
2013-04-05 17:43:00,44.0,23.0,30.15,NW,310,2.0,7.0,44,0.00,,,0.00,,2013-04-05 22:43:00,
2013-04-05 17:53:00,44.0,23.0,30.15,WSW,238,0.0,5.0,44,0.00,,,0.00,,2013-04-05 22:53:00,
2013-04-05 18:02:00,44.0,24.0,30.15,WSW,257,0.0,5.0,45,0.00,,,0.00,,2013-04-05 23:02:00,
2013-04-05 18:12:00,44.0,24.0,30.15,WSW,257,0.0,5.0,45,0.00,,,0.00,,2013-04-05 23:12:00,
2013-04-05 18:22:00,44.0,25.0,30.14,WNW,298,1.0,2.0,46,0.00,,,0.00,,2013-04-05 23:22:00,
2013-04-05 18:32:00,43.0,25.0,30.14,ENE,69,4.0,5.0,48,0.00,,,0.00,,2013-04-05 23:32:00,
2013-04-05 18:42:00,43.0,25.0,30.14,ENE,69,4.0,5.0,48,0.00,,,0.00,,2013-04-05 23:42:00,
2013-04-05 18:53:00,43.0,25.0,30.13,NE,52,2.0,6.0,48,0.00,,,0.00,,2013-04-05 23:53:00,
2013-04-05 19:02:00,42.0,24.0,30.13,ENE,61,3.0,7.0,48,0.00,,,0.00,,2013-04-06 00:02:00,
2013-04-05 19:12:00,42.0,24.0,30.13,ENE,61,3.0,7.0,48,0.00,,,0.00,,2013-04-06 00:12:00,
2013-04-05 19:22:00,42.0,25.0,30.13,NE,48,2.0,8.0,50,0.00,,,0.00,,2013-04-06 00:22:00,
2013-04-05 19:32:00,42.0,27.0,30.13,ENE,65,4.0,8.0,54,0.00,,,0.00,,2013-04-06 00:32:00,
2013-04-05 19:42:00,42.0,27.0,30.13,ENE,65,4.0,8.0,54,0.00,,,0.00,,2013-04-06 00:42:00,
2013-04-05 19:52:00,40.0,28.0,30.13,ENE,61,1.0,9.0,61,0.00,,,0.00,,2013-04-06 00:52:00,
2013-04-05 20:02:00,38.0,27.0,30.14,ENE,69,2.0,11.0,63,0.00,,,0.00,,2013-04-06 01:02:00,
2013-04-05 20:12:00,37.0,26.0,30.13,East,87,1.0,9.0,64,0.00,,,0.00,,2013-04-06 01:12:00,
2013-04-05 20:22:00,37.0,26.0,30.13,East,87,1.0,9.0,64,0.00,,,0.00,,2013-04-06 01:22:00,
2013-04-05 20:32:00,36.0,26.0,30.13,ENE,78,2.0,10.0,66,0.00,,,0.00,,2013-04-06 01:32:00,
2013-04-05 20:42:00,36.0,26.0,30.13,ENE,78,2.0,10.0,66,0.00,,,0.00,,2013-04-06 01:42:00,
2013-04-05 20:53:00,36.0,26.0,30.13,East,86,2.0,10.0,66,0.00,,,0.00,,2013-04-06 01:53:00,
2013-04-05 21:02:00,35.0,25.0,30.13,ENE,61,5.0,9.0,67,0.00,,,0.00,,2013-04-06 02:02:00,
2013-04-05 21:12:00,35.0,25.0,30.13,ENE,61,5.0,9.0,67,0.00,,,0.00,,2013-04-06 02:12:00,
2013-04-05 21:22:00,34.0,25.0,30.13,SSE,168,4.0,9.0,68,0.00,,,0.00,,2013-04-06 02:22:00,
2013-04-05 21:32:00,34.0,25.0,30.14,East,81,1.0,9.0,69,0.00,,,0.00,,2013-04-06 02:32:00,
2013-04-05 21:42:00,34.0,25.0,30.14,East,81,1.0,9.0,69,0.00,,,0.00,,2013-04-06 02:42:00,
2013-04-05 21:52:00,34.0,25.0,30.13,East,98,2.0,6.0,69,0.00,,,0.00,,2013-04-06 02:52:00,
2013-04-05 22:02:00,34.0,25.0,30.13,East,94,1.0,8.0,70,0.00,,,0.00,,2013-04-06 03:02:00,
2013-04-05 22:12:00,34.0,25.0,30.13,East,94,1.0,8.0,70,0.00,,,0.00,,2013-04-06 03:12:00,
2013-04-05 22:22:00,34.0,25.0,30.12,SE,129,1.0,9.0,69,0.00,,,0.00,,2013-04-06 03:22:00,
2013-04-05 22:33:00,34.0,24.0,30.12,ENE,65,2.0,8.0,67,0.00,,,0.00,,2013-04-06 03:33:00,
2013-04-05 22:42:00,34.0,24.0,30.12,ENE,65,2.0,8.0,67,0.00,,,0.00,,2013-04-06 03:42:00,
2013-04-05 22:54:00,34.0,23.0,30.13,NNE,25,1.0,6.0,65,0.00,,,0.00,,2013-04-06 03:54:00,
2013-04-05 23:03:00,34.0,21.0,30.12,NE,51,3.0,8.0,59,0.00,,,0.00,,2013-04-06 04:03:00,
2013-04-05 23:13:00,34.0,21.0,30.12,NE,51,3.0,8.0,59,0.00,,,0.00,,2013-04-06 04:13:00,
2013-04-05 23:23:00,34.0,21.0,30.12,ENE,77,1.0,10.0,58,0.00,,,0.00,,2013-04-06 04:23:00,
2013-04-05 23:33:00,34.0,21.0,30.12,ENE,76,3.0,8.0,59,0.00,,,0.00,,2013-04-06 04:33:00,
2013-04-05 23:42:00,34.0,21.0,30.12,ENE,76,3.0,8.0,59,0.00,,,0.00,,2013-04-06 04:42:00,
2013-04-05 23:53:00,34.0,22.0,30.12,ENE,76,2.0,6.0,60,0.00,,,0.00,,2013-04-06 04:53:00,